createdAt,value
2018-12-02T00:00:18.874Z,15.60
2018-12-02T00:02:54.221Z,15.60
2018-12-02T00:08:39.046Z,15.67
2018-12-02T00:11:07.293Z,14.23
2018-12-02T00:13:35.470Z,13.23
2018-12-02T00:16:03.678Z,14.80
2018-12-02T00:18:31.963Z,14.80
2018-12-02T00:21:00.183Z,14.07
2018-12-02T00:23:28.345Z,14.30
2018-12-02T00:25:56.597Z,14.30
2018-12-02T00:28:24.842Z,14.80
2018-12-02T00:30:52.992Z,13.40
2018-12-02T00:33:21.294Z,14.30
2018-12-02T00:35:49.510Z,13.55
2018-12-02T00:38:17.698Z,14.20
2018-12-02T00:40:45.897Z,14.50
2018-12-02T00:43:14.204Z,13.43
2018-12-02T00:45:42.225Z,12.65
2018-12-02T00:48:10.181Z,12.88
2018-12-02T00:50:38.153Z,12.35
2018-12-02T00:53:07.870Z,12.68
2018-12-02T00:55:38.673Z,11.38
2018-12-02T00:58:06.882Z,11.95
2018-12-02T01:00:35.167Z,11.93
2018-12-02T01:03:03.494Z,11.57
2018-12-02T01:05:31.665Z,10.78
2018-12-02T01:07:59.833Z,10.75
2018-12-02T01:10:28.021Z,10.08
2018-12-02T01:12:57.305Z,10.15
2018-12-02T01:15:26.623Z,9.43
2018-12-02T01:17:54.824Z,11.63
2018-12-02T01:20:23.679Z,9.30
2018-12-02T01:22:51.841Z,10.35
2018-12-02T01:25:20.017Z,12.85
2018-12-02T01:27:48.253Z,10.98
2018-12-02T01:30:18.236Z,12.35
2018-12-02T01:32:46.455Z,12.23
2018-12-02T01:35:15.593Z,12.30
2018-12-02T01:37:43.805Z,11.78
2018-12-02T01:40:14.987Z,10.28
2018-12-02T01:42:43.141Z,10.83
2018-12-02T01:45:15.387Z,10.28
2018-12-02T01:47:43.562Z,9.80
2018-12-02T01:50:15.591Z,9.53
2018-12-02T01:52:45.626Z,8.50
2018-12-02T01:55:13.777Z,8.55
2018-12-02T01:57:41.698Z,8.48
2018-12-02T02:00:13.917Z,8.78
2018-12-02T02:02:42.106Z,8.33
2018-12-02T02:05:10.295Z,8.08
2018-12-02T02:07:38.477Z,8.90
2018-12-02T02:10:11.607Z,8.60
2018-12-02T02:12:39.950Z,8.10
2018-12-02T02:15:09.706Z,7.70
2018-12-02T02:17:37.898Z,8.58
2018-12-02T02:20:11.879Z,7.40
2018-12-02T02:22:40.040Z,7.10
2018-12-02T02:25:10.093Z,6.95
2018-12-02T02:27:38.684Z,8.13
2018-12-02T02:30:13.637Z,6.95
2018-12-02T02:32:41.865Z,7.00
2018-12-02T02:35:10.454Z,7.60
2018-12-02T02:37:38.822Z,7.60
2018-12-02T02:40:14.228Z,7.35
2018-12-02T02:42:42.371Z,6.90
2018-12-02T02:45:11.266Z,7.45
2018-12-02T02:47:39.483Z,6.90
2018-12-02T02:50:12.808Z,7.62
2018-12-02T02:52:41.598Z,7.03
2018-12-02T02:55:09.783Z,7.30
2018-12-02T02:57:37.928Z,7.28
2018-12-02T03:00:12.581Z,7.53
2018-12-02T03:02:40.827Z,7.10
2018-12-02T03:05:09.956Z,6.80
2018-12-02T03:07:38.151Z,7.50
2018-12-02T03:10:09.516Z,8.35
2018-12-02T03:12:37.705Z,6.33
2018-12-02T03:15:07.852Z,6.70
2018-12-02T03:17:36.101Z,6.05
2018-12-02T03:20:06.037Z,5.95
2018-12-02T03:22:33.970Z,7.30
2018-12-02T03:25:02.163Z,6.72
2018-12-02T03:27:30.341Z,6.70
2018-12-02T03:29:58.491Z,7.10
2018-12-02T03:32:26.649Z,7.97
2018-12-02T03:34:54.803Z,6.60
2018-12-02T03:37:22.947Z,7.92
2018-12-02T03:39:51.109Z,6.80
2018-12-02T03:42:19.303Z,6.53
2018-12-02T03:44:47.588Z,6.40
2018-12-02T03:47:15.743Z,6.00
2018-12-02T03:49:43.913Z,6.22
2018-12-02T03:52:12.069Z,6.40
2018-12-02T03:54:40.222Z,5.70
2018-12-02T03:57:08.392Z,4.92
2018-12-02T03:59:36.638Z,5.25
2018-12-02T04:02:04.912Z,5.30
2018-12-02T04:04:33.056Z,4.45
2018-12-02T04:07:01.292Z,5.00
2018-12-02T04:09:29.493Z,5.33
2018-12-02T04:11:57.786Z,4.92
2018-12-02T04:14:26.016Z,5.28
2018-12-02T04:16:54.270Z,4.70
2018-12-02T04:19:22.456Z,4.45
2018-12-02T04:21:51.524Z,4.92
2018-12-02T04:24:18.894Z,5.58
2018-12-02T04:26:47.157Z,4.45
2018-12-02T04:29:15.416Z,5.20
2018-12-02T04:31:43.685Z,4.35
2018-12-02T04:34:11.933Z,4.87
2018-12-02T04:36:40.135Z,4.80
2018-12-02T04:39:08.843Z,4.28
2018-12-02T04:41:37.094Z,5.40
2018-12-02T04:44:05.600Z,5.40
2018-12-02T04:46:33.857Z,5.35
2018-12-02T04:49:02.098Z,6.75
2018-12-02T04:51:30.405Z,11.83
2018-12-02T04:54:05.024Z,8.05
2018-12-02T04:56:33.254Z,4.80
2018-12-02T04:59:01.440Z,5.45
2018-12-02T05:01:29.649Z,4.50
2018-12-02T05:03:57.841Z,4.53
2018-12-02T05:06:26.101Z,4.50
2018-12-02T05:08:54.250Z,5.47
2018-12-02T05:11:22.528Z,5.20
2018-12-02T05:13:50.735Z,5.22
2018-12-02T05:16:18.876Z,5.35
2018-12-02T05:18:47.030Z,5.05
2018-12-02T05:21:15.169Z,4.60
2018-12-02T05:23:43.308Z,4.30
2018-12-02T05:26:11.557Z,4.50
2018-12-02T05:28:39.730Z,5.37
2018-12-02T05:31:07.909Z,4.80
2018-12-02T05:33:36.086Z,4.97
2018-12-02T05:36:04.389Z,5.90
2018-12-02T05:38:32.524Z,5.30
2018-12-02T05:41:00.669Z,4.58
2018-12-02T05:43:28.822Z,5.90
2018-12-02T05:45:57.045Z,5.97
2018-12-02T05:48:25.218Z,5.45
2018-12-02T05:50:53.362Z,5.47
2018-12-02T05:53:21.514Z,5.30
2018-12-02T05:55:49.695Z,5.40
2018-12-02T05:58:17.861Z,6.30
2018-12-02T06:00:46.075Z,5.62
2018-12-02T06:03:14.265Z,6.30
2018-12-02T06:05:42.413Z,5.00
2018-12-02T06:08:10.602Z,5.35
2018-12-02T06:10:38.749Z,5.37
2018-12-02T06:13:06.938Z,6.00
2018-12-02T06:15:35.085Z,6.08
2018-12-02T06:18:03.317Z,6.40
2018-12-02T06:20:31.258Z,5.40
2018-12-02T06:22:59.421Z,10.85
2018-12-02T06:25:27.408Z,12.20
2018-12-02T06:27:55.568Z,10.80
2018-12-02T06:30:26.803Z,9.93
2018-12-02T06:32:55.993Z,9.65
2018-12-02T06:35:24.149Z,11.07
2018-12-02T06:37:53.903Z,17.33
2018-12-02T06:40:23.852Z,14.70
2018-12-02T06:42:52.581Z,11.63
2018-12-02T06:45:21.066Z,10.80
2018-12-02T06:47:49.234Z,10.23
2018-12-02T06:50:20.354Z,9.00
2018-12-02T06:52:48.524Z,9.27
2018-12-02T06:55:18.637Z,6.83
2018-12-02T06:57:48.248Z,6.87
2018-12-02T07:00:25.366Z,7.20
2018-12-02T07:03:04.574Z,9.77
2018-12-02T07:05:35.400Z,8.90
2018-12-02T07:08:03.591Z,11.40
2018-12-02T07:10:31.745Z,13.60
2018-12-02T07:12:59.929Z,11.23
2018-12-02T07:15:28.083Z,10.50
2018-12-02T07:17:56.237Z,10.03
2018-12-02T07:20:24.420Z,9.13
2018-12-02T07:22:52.676Z,6.90
2018-12-02T07:25:20.822Z,6.20
2018-12-02T07:27:48.960Z,7.10
2018-12-02T07:30:17.106Z,12.43
2018-12-02T07:32:45.272Z,8.80
2018-12-02T07:35:14.136Z,8.40
2018-12-02T07:37:45.365Z,7.47
2018-12-02T07:40:21.628Z,8.53
2018-12-02T07:42:49.853Z,10.23
2018-12-02T07:45:18.009Z,12.43
2018-12-02T07:47:46.201Z,8.10
2018-12-02T07:50:14.345Z,6.20
2018-12-02T07:52:42.561Z,9.30
2018-12-02T07:55:10.695Z,8.33
2018-12-02T07:57:38.839Z,7.77
2018-12-02T08:00:12.512Z,8.60
2018-12-02T08:02:40.941Z,8.80
2018-12-02T08:05:12.309Z,11.03
2018-12-02T08:07:40.869Z,12.37
2018-12-02T08:10:11.433Z,13.10
2018-12-02T08:12:39.649Z,13.40
2018-12-02T08:15:11.441Z,13.00
2018-12-02T08:17:39.656Z,15.57
2018-12-02T08:20:11.772Z,42.70
2018-12-02T08:22:40.111Z,17.87
2018-12-02T08:25:11.489Z,20.27
2018-12-02T08:27:39.689Z,11.40
2018-12-02T08:30:12.650Z,10.40
2018-12-02T08:32:40.930Z,11.57
2018-12-02T08:35:10.021Z,13.80
2018-12-02T08:37:39.142Z,8.53
2018-12-02T08:40:10.882Z,8.40
2018-12-02T08:42:39.098Z,7.80
2018-12-02T08:45:12.577Z,7.53
2018-12-02T08:47:41.336Z,8.63
2018-12-02T08:50:11.153Z,7.90
2018-12-02T08:52:39.340Z,10.73
2018-12-02T08:55:10.187Z,9.07
2018-12-02T08:57:38.426Z,8.17
2018-12-02T09:00:10.659Z,8.50
2018-12-02T09:02:38.857Z,7.63
2018-12-02T09:05:09.515Z,9.60
2018-12-02T09:07:37.717Z,9.20
2018-12-02T09:10:10.686Z,9.80
2018-12-02T09:12:38.940Z,12.30
2018-12-02T09:15:08.685Z,26.27
2018-12-02T09:17:36.995Z,34.10
2018-12-02T09:20:10.983Z,43.40
2018-12-02T09:22:39.674Z,39.40
2018-12-02T09:25:08.867Z,29.20
2018-12-02T09:27:37.204Z,29.53
2018-12-02T09:30:12.347Z,26.03
2018-12-02T09:32:40.558Z,18.90
2018-12-02T09:35:09.625Z,16.90
2018-12-02T09:37:37.868Z,17.60
2018-12-02T09:40:09.945Z,18.13
2018-12-02T09:42:38.382Z,16.23
2018-12-02T09:45:10.609Z,17.67
2018-12-02T09:47:38.849Z,19.17
2018-12-02T09:50:14.657Z,20.07
2018-12-02T09:52:42.864Z,18.90
2018-12-02T09:55:16.792Z,23.33
2018-12-02T09:57:45.086Z,20.40
2018-12-02T10:00:15.929Z,19.73
2018-12-02T10:02:44.129Z,19.20
2018-12-02T10:05:12.336Z,17.17
2018-12-02T10:07:40.647Z,18.17
2018-12-02T10:10:13.332Z,17.20
2018-12-02T10:12:42.909Z,15.90
2018-12-02T10:15:12.621Z,15.93
2018-12-02T10:17:40.884Z,19.90
2018-12-02T10:20:15.449Z,14.93
2018-12-02T10:22:44.508Z,16.87
2018-12-02T10:25:13.917Z,15.07
2018-12-02T10:27:42.076Z,11.53
2018-12-02T10:30:12.670Z,14.93
2018-12-02T10:32:40.841Z,17.10
2018-12-02T10:35:08.998Z,15.00
2018-12-02T10:37:37.198Z,16.40
2018-12-02T10:40:08.997Z,15.60
2018-12-02T10:42:37.214Z,14.90
2018-12-02T10:45:06.826Z,20.13
2018-12-02T10:47:34.974Z,18.13
2018-12-02T10:50:03.171Z,14.60
2018-12-02T10:52:31.312Z,17.13
2018-12-02T10:54:59.488Z,16.73
2018-12-02T10:57:27.685Z,14.33
2018-12-02T10:59:55.852Z,17.43
2018-12-02T11:02:24.029Z,19.23
2018-12-02T11:04:52.208Z,24.80
2018-12-02T11:07:20.377Z,35.90
2018-12-02T11:09:48.553Z,20.70
2018-12-02T11:12:16.718Z,48.47
2018-12-02T11:14:44.908Z,48.37
2018-12-02T11:17:13.794Z,25.30
2018-12-02T11:19:41.779Z,8.63
2018-12-02T11:22:09.709Z,18.13
2018-12-02T11:24:37.859Z,15.60
2018-12-02T11:27:07.434Z,11.63
2018-12-02T11:29:35.593Z,5.60
2018-12-02T11:32:03.744Z,7.00
2018-12-02T11:34:31.941Z,4.97
2018-12-02T11:37:00.697Z,4.27
2018-12-02T11:39:28.890Z,4.00
2018-12-02T11:41:57.032Z,4.20
2018-12-02T11:44:25.194Z,2.80
2018-12-02T11:46:53.379Z,4.73
2018-12-02T11:49:21.536Z,10.13
2018-12-02T11:51:49.790Z,6.47
2018-12-02T11:54:17.971Z,9.10
2018-12-02T11:56:46.136Z,20.67
2018-12-02T11:59:14.318Z,15.13
2018-12-02T12:01:42.612Z,20.40
2018-12-02T12:04:10.845Z,33.17
2018-12-02T12:06:39.002Z,13.03
2018-12-02T12:09:08.478Z,12.67
2018-12-02T12:11:36.693Z,16.97
2018-12-02T12:14:04.954Z,14.70
2018-12-02T12:16:33.198Z,4.97
2018-12-02T12:19:01.393Z,6.70
2018-12-02T12:21:29.345Z,18.20
2018-12-02T12:23:57.549Z,14.20
2018-12-02T12:26:25.778Z,11.50
2018-12-02T12:28:53.989Z,9.80
2018-12-02T12:31:22.193Z,4.17
2018-12-02T12:33:50.434Z,3.93
2018-12-02T12:36:18.625Z,3.50
2018-12-02T12:38:46.953Z,3.60
2018-12-02T12:41:15.388Z,3.33
2018-12-02T12:43:44.868Z,4.93
2018-12-02T12:46:13.180Z,32.17
2018-12-02T12:48:41.434Z,24.30
2018-12-02T12:51:09.628Z,27.90
2018-12-02T12:53:37.845Z,24.20
2018-12-02T12:56:06.091Z,73.57
2018-12-02T12:58:34.322Z,8.93
2018-12-02T13:01:02.683Z,3.37
2018-12-02T13:03:30.889Z,1.60
2018-12-02T13:05:59.147Z,2.10
2018-12-02T13:08:27.370Z,2.00
2018-12-02T13:10:55.589Z,2.03
2018-12-02T13:13:23.877Z,1.40
2018-12-02T13:15:52.127Z,1.37
2018-12-02T13:18:20.391Z,40.17
2018-12-02T13:20:52.586Z,41.70
2018-12-02T13:23:20.907Z,22.20
2018-12-02T13:25:49.171Z,9.70
2018-12-02T13:28:17.404Z,13.03
2018-12-02T13:30:45.645Z,13.63
2018-12-02T13:33:13.907Z,7.57
2018-12-02T13:35:42.129Z,13.90
2018-12-02T13:38:10.358Z,4.57
2018-12-02T13:40:39.741Z,2.90
2018-12-02T13:43:12.874Z,12.20
2018-12-02T13:45:41.131Z,56.97
2018-12-02T13:48:09.329Z,4.60
2018-12-02T13:50:37.562Z,78.27
2018-12-02T13:53:06.473Z,73.33
2018-12-02T13:55:34.768Z,213.23
2018-12-02T13:58:02.968Z,10.50
2018-12-02T14:00:31.484Z,38.47
2018-12-02T14:03:06.824Z,19.33
2018-12-02T14:05:36.104Z,24.00
2018-12-02T14:08:04.339Z,6.37
2018-12-02T14:10:32.636Z,75.37
2018-12-02T14:13:02.567Z,180.53
2018-12-02T14:16:35.356Z,11.20
2018-12-02T14:19:07.605Z,35.27
2018-12-02T14:21:35.803Z,83.40
2018-12-02T14:24:05.633Z,158.70
2018-12-02T14:26:33.862Z,10.63
2018-12-02T14:29:06.674Z,143.63
2018-12-02T14:31:36.359Z,25.13
2018-12-02T14:34:05.285Z,8.53
2018-12-02T14:36:33.332Z,2.50
2018-12-02T14:39:01.486Z,3.40
2018-12-02T14:41:29.665Z,1.60
2018-12-02T14:43:57.928Z,126.37
2018-12-02T14:46:26.171Z,296.57
2018-12-02T14:48:54.337Z,370.33
2018-12-02T14:51:22.550Z,92.53
2018-12-02T14:53:50.793Z,70.60
2018-12-02T14:56:18.965Z,60.73
2018-12-02T14:58:47.292Z,30.40
2018-12-02T15:01:15.491Z,23.60
2018-12-02T15:03:43.681Z,23.73
2018-12-02T15:06:11.862Z,16.40
2018-12-02T15:08:40.043Z,8.53
2018-12-02T15:11:08.316Z,27.23
2018-12-02T15:13:36.509Z,26.37
2018-12-02T15:16:05.013Z,20.67
2018-12-02T15:18:33.309Z,13.67
2018-12-02T15:21:08.446Z,7.83
2018-12-02T15:23:36.670Z,7.10
2018-12-02T15:26:05.037Z,7.67
2018-12-02T15:28:33.280Z,8.37
2018-12-02T15:31:01.458Z,12.07
2018-12-02T15:33:29.595Z,9.30
2018-12-02T15:35:57.794Z,19.20
2018-12-02T15:38:26.048Z,17.73
2018-12-02T15:43:28.564Z,20.20
2018-12-02T15:45:56.725Z,12.53
2018-12-02T15:48:24.941Z,15.27
2018-12-02T15:50:53.141Z,12.13
2018-12-02T15:53:21.346Z,11.43
2018-12-02T15:55:49.553Z,14.70
2018-12-02T15:58:17.867Z,24.87
2018-12-02T16:00:46.814Z,21.33
2018-12-02T16:03:15.084Z,19.50
2018-12-02T16:05:43.317Z,19.77
2018-12-02T16:08:11.566Z,21.87
2018-12-02T16:10:39.868Z,29.30
2018-12-02T16:13:09.687Z,20.10
2018-12-02T16:15:37.996Z,13.87
2018-12-02T16:18:08.983Z,11.33
2018-12-02T16:20:48.079Z,11.23
2018-12-02T16:23:20.758Z,14.30
2018-12-02T16:25:48.997Z,21.33
2018-12-02T16:28:17.238Z,17.67
2018-12-02T16:30:45.527Z,17.17
2018-12-02T16:33:13.868Z,15.53
2018-12-02T16:35:42.110Z,13.17
2018-12-02T16:38:11.834Z,17.13
2018-12-02T16:40:40.088Z,24.10
2018-12-02T16:43:09.420Z,24.80
2018-12-02T16:45:39.804Z,18.00
2018-12-02T16:48:08.517Z,14.13
2018-12-02T16:50:40.170Z,14.23
2018-12-02T16:53:22.629Z,16.10
2018-12-02T16:55:58.394Z,16.83
2018-12-02T16:58:28.321Z,14.67
2018-12-02T17:01:02.456Z,17.10
2018-12-02T17:03:30.665Z,16.63
2018-12-02T17:05:58.918Z,16.03
2018-12-02T17:08:27.101Z,16.17
2018-12-02T17:10:55.322Z,21.27
2018-12-02T17:13:23.524Z,27.93
2018-12-02T17:15:51.742Z,29.23
2018-12-02T17:18:19.899Z,23.67
2018-12-02T17:20:48.079Z,21.70
2018-12-02T17:23:16.270Z,24.43
2018-12-02T17:25:44.524Z,24.50
2018-12-02T17:28:12.694Z,20.60
2018-12-02T17:30:44.098Z,7.03
2018-12-02T17:33:12.369Z,12.47
2018-12-02T17:35:40.541Z,17.73
2018-12-02T17:38:08.773Z,19.97
2018-12-02T17:40:36.986Z,20.43
2018-12-02T17:43:06.818Z,12.83
2018-12-02T17:45:35.055Z,11.10
2018-12-02T17:48:03.248Z,17.50
2018-12-02T17:50:31.482Z,18.07
2018-12-02T17:52:59.441Z,20.53
2018-12-02T17:55:27.594Z,19.70
2018-12-02T17:57:55.511Z,17.70
2018-12-02T18:00:25.713Z,19.70
2018-12-02T18:02:55.307Z,21.20
2018-12-02T18:05:25.317Z,21.50
2018-12-02T18:07:54.593Z,22.23
2018-12-02T18:10:22.793Z,18.90
2018-12-02T18:12:51.040Z,19.37
2018-12-02T18:15:19.245Z,22.40
2018-12-02T18:17:47.446Z,30.80
2018-12-02T18:20:16.754Z,33.13
2018-12-02T18:22:45.171Z,29.63
2018-12-02T18:25:15.515Z,29.23
2018-12-02T18:27:44.858Z,18.13
2018-12-02T18:30:13.601Z,25.10
2018-12-02T18:32:41.802Z,25.07
2018-12-02T18:35:18.510Z,25.70
2018-12-02T18:37:46.734Z,24.87
2018-12-02T18:40:14.980Z,23.87
2018-12-02T18:42:43.176Z,24.57
2018-12-02T18:45:11.382Z,25.53
2018-12-02T18:47:39.582Z,23.93
2018-12-02T18:50:10.573Z,22.07
2018-12-02T18:52:39.081Z,30.03
2018-12-02T18:55:09.547Z,44.33
2018-12-02T18:57:37.700Z,46.33
2018-12-02T19:00:14.779Z,43.70
2018-12-02T19:02:43.033Z,43.20
2018-12-02T19:05:11.185Z,38.47
2018-12-02T19:07:39.347Z,39.00
2018-12-02T19:10:10.683Z,38.73
2018-12-02T19:12:38.897Z,40.63
2018-12-02T19:15:10.914Z,42.60
2018-12-02T19:17:39.074Z,50.43
2018-12-02T19:20:12.540Z,98.83
2018-12-02T19:22:40.702Z,116.97
2018-12-02T19:25:10.955Z,114.50
2018-12-02T19:27:39.208Z,93.20
2018-12-02T19:30:12.572Z,97.27
2018-12-02T19:32:40.722Z,74.10
2018-12-02T19:35:26.446Z,79.53
2018-12-02T19:37:57.617Z,69.87
2018-12-02T19:40:25.882Z,79.90
2018-12-02T19:42:54.042Z,69.67
2018-12-02T19:45:22.222Z,57.60
2018-12-02T19:47:50.410Z,53.30
2018-12-02T19:50:19.481Z,67.20
2018-12-02T19:52:49.642Z,69.73
2018-12-02T19:55:17.784Z,82.67
2018-12-02T19:57:47.349Z,80.30
2018-12-02T20:00:25.537Z,82.10
2018-12-02T20:02:54.352Z,71.50
2018-12-02T20:05:22.498Z,76.90
2018-12-02T20:07:53.146Z,90.60
2018-12-02T20:10:23.160Z,88.33
2018-12-02T20:12:51.394Z,81.50
2018-12-02T20:15:19.574Z,80.13
2018-12-02T20:17:47.833Z,74.67
2018-12-02T20:20:22.546Z,71.10
2018-12-02T20:22:50.993Z,56.37
2018-12-02T20:25:20.197Z,53.50
2018-12-02T20:27:48.982Z,56.07
2018-12-02T20:30:18.373Z,62.23
2018-12-02T20:32:46.526Z,62.07
2018-12-02T20:35:14.803Z,63.43
2018-12-02T20:37:42.957Z,58.90
2018-12-02T20:40:14.358Z,83.33
2018-12-02T20:42:42.842Z,67.40
2018-12-02T20:45:12.344Z,66.20
2018-12-02T20:47:40.569Z,56.70
2018-12-02T20:50:13.702Z,56.80
2018-12-02T20:52:41.891Z,50.37
2018-12-02T20:55:11.381Z,44.70
2018-12-02T20:57:39.581Z,52.77
2018-12-02T21:00:11.648Z,29.70
2018-12-02T21:02:39.916Z,14.60
2018-12-02T21:05:11.010Z,34.50
2018-12-02T21:07:39.278Z,15.10
2018-12-02T21:10:10.378Z,3.20
2018-12-02T21:12:38.545Z,2.07
2018-12-02T21:15:11.235Z,3.13
2018-12-02T21:17:39.441Z,2.60
2018-12-02T21:20:10.929Z,2.47
2018-12-02T21:22:39.223Z,2.50
2018-12-02T21:25:11.921Z,2.40
2018-12-02T21:27:40.094Z,2.43
2018-12-02T21:30:19.705Z,3.77
2018-12-02T21:32:47.860Z,2.20
2018-12-02T21:35:16.038Z,2.90
2018-12-02T21:37:44.842Z,3.33
2018-12-02T21:40:14.519Z,2.97
2018-12-02T21:42:42.766Z,3.60
2018-12-02T21:45:14.996Z,4.13
2018-12-02T21:47:44.902Z,3.20
2018-12-02T21:50:16.693Z,2.53
2018-12-02T21:52:44.833Z,1.30
2018-12-02T21:55:13.049Z,1.60
2018-12-02T21:57:41.004Z,2.07
2018-12-02T22:00:14.273Z,1.50
2018-12-02T22:02:42.706Z,1.27
2018-12-02T22:05:10.883Z,3.13
2018-12-02T22:07:39.086Z,3.90
2018-12-02T22:10:10.301Z,11.77
2018-12-02T22:12:38.579Z,7.83
2018-12-02T22:15:07.894Z,4.70
2018-12-02T22:17:36.213Z,3.00
2018-12-02T22:20:09.110Z,2.90
2018-12-02T22:22:37.409Z,1.87
2018-12-02T22:25:07.829Z,1.80
2018-12-02T22:27:36.132Z,1.50
2018-12-02T22:30:05.306Z,1.10
2018-12-02T22:32:33.548Z,2.47
2018-12-02T22:35:01.866Z,1.00
2018-12-02T22:37:30.197Z,1.20
2018-12-02T22:39:58.442Z,1.67
2018-12-02T22:42:26.793Z,2.50
2018-12-02T22:44:55.120Z,1.10
2018-12-02T22:47:23.748Z,0.80
2018-12-02T22:49:52.020Z,1.40
2018-12-02T22:52:20.305Z,1.30
2018-12-02T22:54:48.785Z,0.70
2018-12-02T22:57:17.095Z,0.80
2018-12-02T22:59:45.385Z,0.87
2018-12-02T23:02:20.950Z,0.70
2018-12-02T23:04:49.284Z,0.80
2018-12-02T23:07:17.711Z,0.93
2018-12-02T23:09:46.071Z,0.93
2018-12-02T23:12:14.388Z,0.97
2018-12-02T23:14:42.721Z,0.80
2018-12-02T23:17:18.556Z,0.87
2018-12-02T23:19:46.804Z,0.77
2018-12-02T23:22:15.075Z,0.80
2018-12-02T23:24:43.396Z,0.80
2018-12-02T23:27:11.683Z,0.80
2018-12-02T23:29:40.176Z,0.60
2018-12-02T23:32:08.518Z,0.70
2018-12-02T23:34:36.954Z,0.80
2018-12-02T23:37:05.412Z,0.60
2018-12-02T23:39:33.746Z,0.70
2018-12-02T23:42:01.999Z,0.70
2018-12-02T23:44:30.242Z,0.63
2018-12-02T23:46:58.600Z,0.70
2018-12-02T23:49:27.086Z,0.60
2018-12-02T23:51:55.428Z,0.80
2018-12-02T23:54:23.702Z,0.73
2018-12-02T23:56:51.954Z,0.60
2018-12-02T23:59:20.230Z,0.60
